Ana Sayfa
METAR-TAF:

METAR-TAF

Havaalanları :

Çongçing Jiangbei Uluslararası Havalimanı

Çongçing, Çin

Enlem: 29-31N, Boylam: 106-29E, yükseklik: 351 m

Güncel hava durumu gözlemi

Rapor saat 21:00 UTC de 38 dakika önce yapıldı.
Rüzgar güney/güneydoğudan 4 kt
Sıcaklık 29°C
Nem 58%
Basınç 1002 hPa
Görüş mesafesi 10 km veya daha fazla
1500 m altında bulut yok ve kümülonimbus yok

METAR: ZUCK 212100Z 15002MPS CAVOK 29/20 Q1002 NOSIG

Saat: 05:38 (21:38 UTC)

Tahmin

Rapor saat 15:02 UTC de 6 saat ve 36 dakika önce yapıldı.
Ayın 21'si saat 18 UTC'den ayın 22'si saat 18 UTC'ye kadar geçerli Tahmin
Rüzgar doğu/güneydoğudan 8 kt
Görüş mesafesi: 6000 m
4000 ft yükseklikte az bulutlu

TAF: ZUCK 211502Z 2118/2218 12004MPS 6000 FEW040 TX38/2208Z TN29/2121Z

4.000'den fazla havaalanı için hava durumu gözlemleri ve tahminleri (METAR ve TAF raporları).

Kullanılabilir istasyonlar harita üzerinde sarı ve kırmızı noktalarla gösterilir.

İstasyonun adını görmek için fareyi noktanın üzerinde gezdirin.

Sonrasında hava gözlem ve tahminlerini görmek için tıklayın.

Haritayı değiştirmek için: yaklaştırmak için siyah artı işaretli yeşil düğmeye ve uzaklaştırmak için de eksi işaretli düğmeye hızla tıklayın; bitişik haritalar için yeşil okları kullanın.


METAR-TAF: